M I D A S
Marine Information and Data Acquisition System
Tripno 1186 of the Zeeleeuw from 2006-11-21 07:35:17 to 2006-11-21 15:36:30
Back to CruiseResearch ActivitiesStationsMapUnderway DataData graphs

EquipmentUnitsComment
TimeDGPSUTC
LatitudeDGPSDM.mWGS84
LongitudeDGPSDM.mWGS84
HeadingGyrodeg 
SOGDGPSknotsSpeed over ground
COGDGPSdegCourse over ground
DepthEcho soundermeters200 kHz
Missing or incorrect values are displayed as -999
Navigation data collected by the RV Zeeleeuw from 2006-11-21 07:21:41 to 2006-11-21 15:39:16
                                                                                    Next 1000 lines
Time Latitude Longitude Heading SOG COG Depth
2006-11-21 07:21:51 51°13.598 2°56.095 126.2 -999 85 -999
2006-11-21 07:21:56 51°13.598 2°56.095 126.3 -999 252 -999
2006-11-21 07:22:01 51°13.598 2°56.095 126.3 -999 246 -999
2006-11-21 07:22:06 51°13.598 2°56.095 126.3 -999 266 -999
2006-11-21 07:22:11 51°13.598 2°56.095 126.3 -999 237 -999
2006-11-21 07:22:16 51°13.598 2°56.095 126.3 -999 92 -999
2006-11-21 07:22:21 51°13.598 2°56.095 126.3 -999 233 -999
2006-11-21 07:22:26 51°13.598 2°56.095 126.3 -999 267 -999
2006-11-21 07:22:31 51°13.598 2°56.095 126.3 -999 249 -999
2006-11-21 07:22:36 51°13.598 2°56.095 126.2 -999 290 -999
2006-11-21 07:22:41 51°13.598 2°56.095 126.2 0.1 278 -999
2006-11-21 07:22:45 51°13.598 2°56.095 126.1 0.1 304 -999
2006-11-21 07:22:51 51°13.598 2°56.095 125.8 -999 323 -999
2006-11-21 07:22:56 51°13.598 2°56.095 125.6 -999 77 -999
2006-11-21 07:23:01 51°13.598 2°56.095 125.4 0.1 227 -999
2006-11-21 07:23:05 51°13.598 2°56.095 125.5 0.1 316 -999
2006-11-21 07:23:11 51°13.599 2°56.094 125.6 0.1 309 -999
2006-11-21 07:23:16 51°13.599 2°56.094 125.5 -999 333 -999
2006-11-21 07:23:21 51°13.598 2°56.094 125.3 -999 166 -999
2006-11-21 07:23:25 51°13.598 2°56.095 125.2 0.1 164 -999
2006-11-21 07:23:31 51°13.599 2°56.095 125 -999 119 -999
2006-11-21 07:23:36 51°13.599 2°56.095 125 -999 189 -999
2006-11-21 07:23:41 51°13.599 2°56.095 125.3 -999 26 -999
2006-11-21 07:23:45 51°13.599 2°56.095 125.3 -999 269 -999
2006-11-21 07:23:51 51°13.598 2°56.094 125.3 -999 276 -999
2006-11-21 07:23:56 51°13.598 2°56.094 125.4 -999 353 -999
2006-11-21 07:24:01 51°13.598 2°56.094 125.4 -999 200 -999
2006-11-21 07:24:06 51°13.598 2°56.094 125.4 -999 76 -999
2006-11-21 07:24:11 51°13.598 2°56.094 125.5 -999 152 -999
2006-11-21 07:24:16 51°13.598 2°56.094 125.7 -999 124 -999
2006-11-21 07:24:21 51°13.598 2°56.094 125.7 -999 167 -999
2006-11-21 07:24:26 51°13.598 2°56.094 125.8 -999 85 -999
2006-11-21 07:24:31 51°13.598 2°56.094 125.9 -999 162 -999
2006-11-21 07:24:36 51°13.598 2°56.094 126 -999 183 -999
2006-11-21 07:24:41 51°13.598 2°56.093 126 -999 172 -999
2006-11-21 07:24:46 51°13.598 2°56.094 126 -999 158 -999
2006-11-21 07:24:51 51°13.598 2°56.094 126 -999 150 -999
2006-11-21 07:24:56 51°13.598 2°56.094 126.1 -999 119 -999
2006-11-21 07:25:01 51°13.598 2°56.094 126.1 -999 124 -999
2006-11-21 07:25:05 51°13.598 2°56.094 126.2 -999 80 -999
2006-11-21 07:25:11 51°13.598 2°56.094 126.3 -999 223 -999
2006-11-21 07:25:16 51°13.598 2°56.094 126.4 -999 210 -999
2006-11-21 07:25:21 51°13.598 2°56.094 126.5 -999 278 -999
2006-11-21 07:25:25 51°13.598 2°56.094 126.7 -999 4 -999
2006-11-21 07:25:31 51°13.598 2°56.094 126.7 -999 325 -999
2006-11-21 07:25:36 51°13.598 2°56.094 126.7 -999 267 -999
2006-11-21 07:25:41 51°13.598 2°56.094 126.7 -999 264 -999
2006-11-21 07:25:45 51°13.598 2°56.094 126.7 -999 278 -999
2006-11-21 07:25:51 51°13.598 2°56.094 126.7 -999 358 -999
2006-11-21 07:25:56 51°13.598 2°56.094 126.6 -999 175 -999
2006-11-21 07:26:01 51°13.598 2°56.094 126.6 -999 165 -999
2006-11-21 07:26:06 51°13.598 2°56.094 126.6 -999 136 -999
2006-11-21 07:26:11 51°13.598 2°56.095 126.5 0.1 136 -999
2006-11-21 07:26:16 51°13.598 2°56.095 126.5 -999 144 -999
2006-11-21 07:26:21 51°13.598 2°56.095 126.5 -999 71 -999
2006-11-21 07:26:26 51°13.598 2°56.095 126.5 -999 242 -999
2006-11-21 07:26:31 51°13.599 2°56.095 126.5 -999 261 -999
2006-11-21 07:26:36 51°13.599 2°56.095 126.8 -999 298 -999
2006-11-21 07:26:41 51°13.599 2°56.095 126.8 0.1 2 -999
2006-11-21 07:26:46 51°13.599 2°56.095 126.8 -999 349 -999
2006-11-21 07:26:51 51°13.599 2°56.095 126.8 -999 352 -999
2006-11-21 07:26:56 51°13.599 2°56.095 126.8 -999 327 -999
2006-11-21 07:27:01 51°13.599 2°56.095 126.6 -999 308 -999
2006-11-21 07:27:06 51°13.599 2°56.095 126.4 -999 288 -999
2006-11-21 07:27:11 51°13.599 2°56.095 126.3 -999 153 -999
2006-11-21 07:27:16 51°13.599 2°56.095 126.2 -999 90 -999
2006-11-21 07:27:21 51°13.599 2°56.095 126.2 -999 150 -999
2006-11-21 07:27:25 51°13.599 2°56.096 126.2 0.1 96 -999
2006-11-21 07:27:31 51°13.599 2°56.096 126.2 -999 150 -999
2006-11-21 07:27:36 51°13.599 2°56.096 126.3 -999 197 -999
2006-11-21 07:27:40 51°13.599 2°56.096 126.4 -999 227 -999
2006-11-21 07:27:43 51°13.599 2°56.096 126.6 -999 191 6.3
2006-11-21 07:27:47 51°13.599 2°56.096 126.6 -999 144 6.1
2006-11-21 07:27:52 51°13.599 2°56.096 126.8 -999 146 6.1
2006-11-21 07:27:57 51°13.599 2°56.096 126.8 -999 180 -999
2006-11-21 07:28:01 51°13.599 2°56.096 126.8 -999 213 6.3
2006-11-21 07:28:06 51°13.599 2°56.097 127 -999 352 6.5
2006-11-21 07:28:12 51°13.599 2°56.097 127 -999 243 6.2
2006-11-21 07:28:17 51°13.599 2°56.097 127.1 -999 204 6.4
2006-11-21 07:28:21 51°13.599 2°56.097 127.1 -999 211 6.3
2006-11-21 07:28:27 51°13.599 2°56.098 127.1 -999 79 6.1
2006-11-21 07:28:32 51°13.599 2°56.097 127.1 -999 96 6.2
2006-11-21 07:28:37 51°13.599 2°56.097 127.1 -999 78 6
2006-11-21 07:28:41 51°13.599 2°56.097 127 0.1 56 6.1
2006-11-21 07:28:47 51°13.599 2°56.097 127 -999 3 6.3
2006-11-21 07:28:52 51°13.599 2°56.097 127 -999 328 6.6
2006-11-21 07:28:56 51°13.599 2°56.097 127 -999 272 6.6
2006-11-21 07:29:01 51°13.599 2°56.096 127 -999 91 6.1
2006-11-21 07:29:07 51°13.598 2°56.095 127 0.1 209 -999
2006-11-21 07:29:13 51°13.598 2°56.096 127 -999 204 -999
2006-11-21 07:29:17 51°13.598 2°56.096 127 -999 199 6.3
2006-11-21 07:29:22 51°13.598 2°56.096 127 -999 45 -999
2006-11-21 07:29:27 51°13.598 2°56.096 127 -999 318 -999
2006-11-21 07:29:32 51°13.599 2°56.096 127 -999 5 -999
2006-11-21 07:29:37 51°13.599 2°56.097 127 -999 156 -999
2006-11-21 07:29:42 51°13.599 2°56.097 127 -999 182 6.1
2006-11-21 07:29:47 51°13.599 2°56.097 126.9 -999 295 6.2
2006-11-21 07:29:52 51°13.598 2°56.096 126.9 -999 214 6.1
2006-11-21 07:29:57 51°13.599 2°56.096 126.9 0.1 37 -999
2006-11-21 07:30:01 51°13.599 2°56.096 126.9 -999 33 6.1
2006-11-21 07:30:07 51°13.599 2°56.096 126.9 -999 7 6.2
2006-11-21 07:30:12 51°13.598 2°56.095 126.9 0.1 41 6.1
2006-11-21 07:30:17 51°13.598 2°56.095 127 0.1 47 6.1
2006-11-21 07:30:21 51°13.598 2°56.096 127 0.1 62 6.6
2006-11-21 07:30:27 51°13.599 2°56.096 127 0.1 68 6.1
2006-11-21 07:30:32 51°13.598 2°56.095 127 -999 91 -999
2006-11-21 07:30:37 51°13.598 2°56.095 127 0.1 92 6.2
2006-11-21 07:30:41 51°13.598 2°56.095 127 0.1 80 6.1
2006-11-21 07:30:47 51°13.598 2°56.095 127 -999 187 6.5
2006-11-21 07:30:52 51°13.598 2°56.096 127 -999 165 39.6
2006-11-21 07:30:57 51°13.598 2°56.096 127 -999 232 6.5
2006-11-21 07:31:02 51°13.599 2°56.096 127 -999 74 -999
2006-11-21 07:31:07 51°13.599 2°56.097 127 -999 222 6.2
2006-11-21 07:31:11 51°13.599 2°56.097 127 -999 342 6.1
2006-11-21 07:31:16 51°13.599 2°56.097 127.1 -999 286 6.3
2006-11-21 07:31:22 51°13.599 2°56.096 127.1 -999 272 6.2
2006-11-21 07:31:27 51°13.599 2°56.096 127.1 -999 340 6.2
2006-11-21 07:31:31 51°13.599 2°56.096 127.1 -999 292 6.2
2006-11-21 07:31:36 51°13.599 2°56.096 127.1 -999 334 6.4
2006-11-21 07:31:42 51°13.599 2°56.096 127.1 -999 55 6.2
2006-11-21 07:31:47 51°13.599 2°56.096 127.1 -999 128 6.1
2006-11-21 07:31:52 51°13.599 2°56.096 127 -999 168 6.1
2006-11-21 07:31:56 51°13.598 2°56.096 127 -999 230 6.4
2006-11-21 07:32:02 51°13.598 2°56.096 127 -999 78 6.1
2006-11-21 07:32:07 51°13.598 2°56.096 127 -999 22 6.1
2006-11-21 07:32:12 51°13.598 2°56.096 127 -999 278 6.5
2006-11-21 07:32:16 51°13.598 2°56.096 127 -999 288 6.6
2006-11-21 07:32:21 51°13.598 2°56.096 127.1 -999 303 6.2
2006-11-21 07:32:26 51°13.598 2°56.095 127.2 0.1 236 6.3
2006-11-21 07:32:31 51°13.598 2°56.096 127.4 -999 239 6.2
2006-11-21 07:32:37 51°13.599 2°56.096 127.6 -999 203 6.4
2006-11-21 07:32:41 51°13.599 2°56.096 127.7 -999 131 6.6
2006-11-21 07:32:47 51°13.598 2°56.096 127.8 -999 129 6.3
2006-11-21 07:32:52 51°13.598 2°56.096 127.9 -999 110 6.6
2006-11-21 07:32:57 51°13.598 2°56.096 127.9 -999 118 6.2
2006-11-21 07:33:02 51°13.598 2°56.096 128 -999 108 6.2
2006-11-21 07:33:05 51°13.598 2°56.096 128 -999 60 6.3
2006-11-21 07:33:12 51°13.598 2°56.096 127.8 -999 33 6.5
2006-11-21 07:33:17 51°13.598 2°56.096 127.6 -999 336 6.1
2006-11-21 07:33:21 51°13.598 2°56.096 127 -999 325 6.6
2006-11-21 07:33:27 51°13.598 2°56.096 126.4 -999 345 6.2
2006-11-21 07:33:32 51°13.599 2°56.096 125.8 -999 65 6.2
2006-11-21 07:33:36 51°13.599 2°56.096 125.1 -999 112 6.1
2006-11-21 07:33:42 51°13.599 2°56.096 123.9 0.1 165 6.3
2006-11-21 07:33:47 51°13.599 2°56.096 123.2 -999 176 6.5
2006-11-21 07:33:52 51°13.599 2°56.096 122.4 0.1 188 6.6
2006-11-21 07:33:56 51°13.599 2°56.096 121.5 -999 208 6.2
2006-11-21 07:34:02 51°13.599 2°56.096 120.5 -999 179 6.3
2006-11-21 07:34:07 51°13.598 2°56.095 119.9 -999 159 6.6
2006-11-21 07:34:12 51°13.598 2°56.095 119.2 -999 156 6.2
2006-11-21 07:34:17 51°13.597 2°56.095 118.5 0.1 165 6.2
2006-11-21 07:34:21 51°13.597 2°56.095 117.8 0.1 205 6.3
2006-11-21 07:34:26 51°13.596 2°56.095 116.9 0.1 191 6.3
2006-11-21 07:34:32 51°13.596 2°56.095 115.9 0.1 192 6.4
2006-11-21 07:34:37 51°13.597 2°56.095 115.1 0.1 186 6.6
2006-11-21 07:34:41 51°13.597 2°56.095 114.1 -999 229 6.5
2006-11-21 07:34:45 51°13.597 2°56.094 113.2 0.1 283 6.4
2006-11-21 07:34:52 51°13.598 2°56.093 112.9 0.5 296 6.5
2006-11-21 07:34:56 51°13.599 2°56.091 112.9 0.8 296 6.5
2006-11-21 07:35:01 51°13.599 2°56.089 113.3 1.2 295 6.5
2006-11-21 07:35:07 51°13.6 2°56.086 113.6 1.5 296 6.6
2006-11-21 07:35:12 51°13.601 2°56.082 113.9 1.7 294 6.7
2006-11-21 07:35:17 51°13.603 2°56.078 114.4 2 295 -999
2006-11-21 07:35:23 51°13.604 2°56.072 114.7 2.3 295 -999
2006-11-21 07:35:27 51°13.606 2°56.067 115 2.5 295 -999
2006-11-21 07:35:32 51°13.608 2°56.062 115.1 2.7 294 -999
2006-11-21 07:35:37 51°13.609 2°56.056 115.2 2.9 294 -999
2006-11-21 07:35:42 51°13.611 2°56.05 115.4 3.1 294 -999
2006-11-21 07:35:47 51°13.612 2°56.043 115.4 3.2 295 -999
2006-11-21 07:35:52 51°13.614 2°56.036 115.1 3.4 294 8.1
2006-11-21 07:35:57 51°13.616 2°56.029 114.5 3.5 295 -999
2006-11-21 07:36:03 51°13.618 2°56.021 114.2 3.5 293 -999
2006-11-21 07:36:07 51°13.619 2°56.015 113.9 3.5 293 -999
2006-11-21 07:36:12 51°13.621 2°56.007 113.9 3.6 291 4.5
2006-11-21 07:36:17 51°13.623 2°56 113.9 3.7 292 -999
2006-11-21 07:36:22 51°13.626 2°55.992 114 3.7 291 -999
2006-11-21 07:36:27 51°13.628 2°55.984 114.4 3.8 292 -999
2006-11-21 07:36:32 51°13.63 2°55.976 114.6 3.8 292 -999
2006-11-21 07:36:37 51°13.632 2°55.968 114.9 3.9 292 -999
2006-11-21 07:36:43 51°13.635 2°55.958 115.4 3.9 292 -999
2006-11-21 07:36:47 51°13.636 2°55.952 116.2 3.9 293 -999
2006-11-21 07:36:53 51°13.639 2°55.942 117.1 4 293 -999
2006-11-21 07:36:57 51°13.641 2°55.935 117.8 4.1 294 -999
2006-11-21 07:37:02 51°13.643 2°55.927 118.3 4.2 295 -999
2006-11-21 07:37:07 51°13.646 2°55.919 118.9 4.2 296 -999
2006-11-21 07:37:13 51°13.649 2°55.909 119.8 4.3 297 -999
2006-11-21 07:37:17 51°13.651 2°55.902 120.5 4.4 297 -999
2006-11-21 07:37:22 51°13.654 2°55.893 121 4.5 299 -999
2006-11-21 07:37:27 51°13.657 2°55.885 121.2 4.5 299 -999
2006-11-21 07:37:32 51°13.66 2°55.876 121.4 4.6 300 -999
2006-11-21 07:37:37 51°13.664 2°55.867 121.4 4.6 300 -999
2006-11-21 07:37:43 51°13.668 2°55.857 121 4.7 300 -999
2006-11-21 07:37:47 51°13.67 2°55.85 119.9 4.7 300 5
2006-11-21 07:37:52 51°13.673 2°55.841 118.8 4.6 300 -999
2006-11-21 07:37:57 51°13.676 2°55.833 117.3 4.3 298 -999
2006-11-21 07:38:02 51°13.678 2°55.825 115.9 4.2 297 8.6
2006-11-21 07:38:07 51°13.68 2°55.817 114.8 4 297 8.8
2006-11-21 07:38:11 51°13.682 2°55.811 113.2 3.8 295 8.9
2006-11-21 07:38:17 51°13.685 2°55.802 111.8 3.7 293 9
2006-11-21 07:38:22 51°13.687 2°55.795 110.3 3.6 292 9.3
2006-11-21 07:38:27 51°13.688 2°55.788 108.7 3.4 291 9.8
2006-11-21 07:38:31 51°13.69 2°55.782 106.9 3.4 290 10.8
2006-11-21 07:38:37 51°13.691 2°55.774 105.6 3.4 289 11
2006-11-21 07:38:41 51°13.692 2°55.768 103.9 3.3 288 11.3
2006-11-21 07:38:47 51°13.694 2°55.761 102.3 3.1 287 11.6
2006-11-21 07:38:52 51°13.695 2°55.755 100.3 2.8 285 12.2
2006-11-21 07:38:57 51°13.695 2°55.751 97.9 2.3 287 12.5
2006-11-21 07:39:01 51°13.696 2°55.747 95.5 2 282 12.6
2006-11-21 07:39:07 51°13.697 2°55.742 92.9 1.9 284 12.5
2006-11-21 07:39:12 51°13.697 2°55.739 90.9 1.8 280 12.3
2006-11-21 07:39:16 51°13.697 2°55.736 89.3 1.6 281 12
2006-11-21 07:39:21 51°13.698 2°55.733 87.9 1.4 279 12.1
2006-11-21 07:39:26 51°13.698 2°55.731 85.8 1 281 12.3
2006-11-21 07:39:32 51°13.698 2°55.729 83.1 0.7 282 12.4
2006-11-21 07:39:37 51°13.698 2°55.729 80 0.5 291 12.6
2006-11-21 07:39:41 51°13.699 2°55.728 76.5 0.3 314 12.7
2006-11-21 07:39:47 51°13.699 2°55.728 72.9 0.3 343 12.8
2006-11-21 07:39:51 51°13.7 2°55.728 69.4 0.4 9 13.1
2006-11-21 07:39:56 51°13.7 2°55.729 65.8 0.5 18 13.1
2006-11-21 07:40:01 51°13.701 2°55.729 62 0.6 23 13.1
2006-11-21 07:40:07 51°13.702 2°55.73 58 0.8 23 12.9
2006-11-21 07:40:11 51°13.703 2°55.731 53.8 0.9 22 12.7
2006-11-21 07:40:16 51°13.704 2°55.731 49.5 1 19 12.4
2006-11-21 07:40:22 51°13.706 2°55.732 45 1.1 16 12.1
2006-11-21 07:40:27 51°13.708 2°55.733 40.2 1.2 13 11.8
2006-11-21 07:40:32 51°13.71 2°55.733 35.5 1.3 9 12.1
2006-11-21 07:40:37 51°13.712 2°55.734 30.7 1.5 7 12.2
2006-11-21 07:40:41 51°13.714 2°55.734 26 1.6 1 12
2006-11-21 07:40:47 51°13.717 2°55.733 21.2 1.7 359 11.7
2006-11-21 07:40:52 51°13.719 2°55.733 16.6 1.8 356 11.4
2006-11-21 07:40:56 51°13.721 2°55.732 12.2 1.9 352 11.4
2006-11-21 07:41:01 51°13.724 2°55.732 7.9 2 350 11.1
2006-11-21 07:41:07 51°13.728 2°55.73 3.5 2.1 346 10.4
2006-11-21 07:41:12 51°13.731 2°55.729 359.1 2.2 342 10.3
2006-11-21 07:41:16 51°13.733 2°55.728 354.7 2.3 340 9.9
2006-11-21 07:41:22 51°13.737 2°55.725 350.2 2.5 337 9.7
2006-11-21 07:41:27 51°13.74 2°55.722 346.5 2.6 333 9.5
2006-11-21 07:41:32 51°13.744 2°55.719 340.7 2.8 331 9.4
2006-11-21 07:41:37 51°13.748 2°55.715 336.1 3.1 326 9.3
2006-11-21 07:41:41 51°13.75 2°55.711 333.1 3.3 326 9.2
2006-11-21 07:41:47 51°13.755 2°55.706 331.5 3.5 325 9.1
2006-11-21 07:41:52 51°13.76 2°55.701 330.9 3.7 325 9.1
2006-11-21 07:41:56 51°13.763 2°55.697 331.1 3.8 326 9.3
2006-11-21 07:42:02 51°13.769 2°55.691 331.6 4.1 326 9.4
2006-11-21 07:42:07 51°13.774 2°55.686 332 4.3 326 9.3
2006-11-21 07:42:10 51°13.777 2°55.683 332.4 4.5 327 9.3
2006-11-21 07:42:17 51°13.785 2°55.675 332.5 4.7 327 9.3
2006-11-21 07:42:21 51°13.789 2°55.67 332.7 4.9 328 9.4
2006-11-21 07:42:26 51°13.796 2°55.664 333.3 5.1 329 10
2006-11-21 07:42:32 51°13.803 2°55.658 333.9 5.2 330 9.8
2006-11-21 07:42:37 51°13.81 2°55.652 334.8 5.4 331 10
2006-11-21 07:42:41 51°13.815 2°55.648 335.6 5.5 332 9.9
2006-11-21 07:42:47 51°13.824 2°55.641 336.4 5.6 333 9.8
2006-11-21 07:42:52 51°13.831 2°55.635 337 5.7 333 9.8
2006-11-21 07:42:56 51°13.837 2°55.631 337.4 5.8 333 9.9
2006-11-21 07:43:02 51°13.846 2°55.624 337.5 5.9 333 9.6
2006-11-21 07:43:07 51°13.853 2°55.618 337.5 6 333 9.4
2006-11-21 07:43:12 51°13.861 2°55.611 337.5 6.1 334 9.2
2006-11-21 07:43:16 51°13.867 2°55.606 337.5 6.2 333 9.4
2006-11-21 07:43:21 51°13.875 2°55.6 337.5 6.3 333 9.2
2006-11-21 07:43:26 51°13.883 2°55.594 337.6 6.4 334 9.6
2006-11-21 07:43:32 51°13.892 2°55.586 338.2 6.4 334 9.4
2006-11-21 07:43:37 51°13.901 2°55.58 338.8 6.5 335 9.6
2006-11-21 07:43:41 51°13.907 2°55.575 339.4 6.6 334 9.9
2006-11-21 07:43:45 51°13.914 2°55.57 340.3 6.6 336 10.2
2006-11-21 07:43:52 51°13.925 2°55.562 341.1 6.6 336 9.6
2006-11-21 07:43:57 51°13.934 2°55.556 341.4 6.7 338 10.1
2006-11-21 07:44:01 51°13.941 2°55.552 341.9 6.7 337 9.7
2006-11-21 07:44:07 51°13.951 2°55.545 342 6.8 338 10
2006-11-21 07:44:12 51°13.96 2°55.539 342.1 6.8 337 9.5
2006-11-21 07:44:17 51°13.969 2°55.533 341.9 6.8 338 9.4
2006-11-21 07:44:21 51°13.976 2°55.529 341.9 6.9 338 9.3
2006-11-21 07:44:26 51°13.985 2°55.523 342.1 7 338 9.9
2006-11-21 07:44:32 51°13.996 2°55.515 342.2 7.1 338 9.8
2006-11-21 07:44:37 51°14.005 2°55.509 342.5 7.3 338 9.7
2006-11-21 07:44:42 51°14.015 2°55.503 342.7 7.4 339 9.6
2006-11-21 07:44:47 51°14.024 2°55.497 342.7 7.5 338 9.6
2006-11-21 07:44:52 51°14.034 2°55.491 342.2 7.6 338 9.7
2006-11-21 07:44:56 51°14.042 2°55.485 342 7.6 337 9.6
2006-11-21 07:45:01 51°14.052 2°55.479 341.9 7.7 337 9.9
2006-11-21 07:45:07 51°14.064 2°55.47 341.5 7.8 336 9.8
2006-11-21 07:45:11 51°14.072 2°55.465 341 7.8 336 9.8
2006-11-21 07:45:16 51°14.082 2°55.458 340.7 7.9 336 9.9
2006-11-21 07:45:22 51°14.094 2°55.449 340.7 8 336 9.9
2006-11-21 07:45:27 51°14.105 2°55.441 340.6 8.3 336 9.9
2006-11-21 07:45:32 51°14.116 2°55.433 340.7 8.5 336 10
2006-11-21 07:45:36 51°14.124 2°55.427 340.7 8.7 335 10
2006-11-21 07:45:42 51°14.138 2°55.416 339.3 8.9 334 10.1
2006-11-21 07:45:47 51°14.149 2°55.407 337.9 9 333 10.2
2006-11-21 07:45:52 51°14.16 2°55.397 336.5 9.1 331 10.1
2006-11-21 07:45:57 51°14.171 2°55.387 335.6 9.2 330 -999
2006-11-21 07:46:02 51°14.182 2°55.376 334.5 9.3 329 -999
2006-11-21 07:46:07 51°14.193 2°55.365 333.1 9.3 328 10.2
2006-11-21 07:46:12 51°14.204 2°55.353 331.7 9.4 326 10
2006-11-21 07:46:17 51°14.214 2°55.341 329.8 9.5 324 10.4
2006-11-21 07:46:21 51°14.222 2°55.33 327.7 9.5 322 10.7
2006-11-21 07:46:27 51°14.234 2°55.313 325.4 9.5 320 10.5
2006-11-21 07:46:32 51°14.244 2°55.299 323.3 9.6 317 10.9
2006-11-21 07:46:37 51°14.253 2°55.284 321.3 9.6 316 10.2
2006-11-21 07:46:41 51°14.261 2°55.272 319.2 9.6 314 9.8
2006-11-21 07:46:47 51°14.272 2°55.253 317.9 9.6 313 9.9
2006-11-21 07:46:51 51°14.279 2°55.24 316.7 9.7 312 9.9
2006-11-21 07:46:57 51°14.289 2°55.22 315.6 9.7 310 10
2006-11-21 07:47:01 51°14.296 2°55.207 314.2 9.7 309 9.9
2006-11-21 07:47:07 51°14.306 2°55.187 313.3 9.7 309 9.6
2006-11-21 07:47:12 51°14.314 2°55.17 312.6 9.7 308 9.4
2006-11-21 07:47:16 51°14.321 2°55.156 312.3 9.7 307 9.5
2006-11-21 07:47:22 51°14.331 2°55.136 312.3 9.7 308 9.7
2006-11-21 07:47:27 51°14.339 2°55.119 312.5 9.9 308 9.8
2006-11-21 07:47:32 51°14.348 2°55.102 312.8 10 309 9.6
2006-11-21 07:47:36 51°14.355 2°55.088 313.4 10 310 9.7
2006-11-21 07:47:42 51°14.366 2°55.069 315.3 10.1 312 9.9
2006-11-21 07:47:47 51°14.376 2°55.053 318.4 10.2 315 10
2006-11-21 07:47:52 51°14.387 2°55.038 321.2 10.3 318 10
2006-11-21 07:47:56 51°14.396 2°55.026 323.2 10.3 319 9.9
2006-11-21 07:48:01 51°14.407 2°55.011 324.8 10.4 320 9.9
2006-11-21 07:48:07 51°14.42 2°54.993 325.4 10.5 320 9.8
2006-11-21 07:48:11 51°14.429 2°54.981 325.8 10.5 319 9.8
2006-11-21 07:48:16 51°14.441 2°54.967 326.2 10.5 321 9.9
2006-11-21 07:48:21 51°14.452 2°54.953 328 10.6 322 9.6
2006-11-21 07:48:27 51°14.467 2°54.938 330.2 10.4 326 9.3
2006-11-21 07:48:32 51°14.479 2°54.926 334.5 10.5 329 9.3
2006-11-21 07:48:37 51°14.492 2°54.914 336.9 10.5 329 9.1
2006-11-21 07:48:41 51°14.502 2°54.904 337.2 10.5 329 9
2006-11-21 07:48:45 51°14.512 2°54.894 336.5 10.6 329 9.1
2006-11-21 07:48:52 51°14.53 2°54.877 335.9 10.8 328 8.9
2006-11-21 07:48:57 51°14.543 2°54.863 334.9 11 327 9
2006-11-21 07:49:02 51°14.555 2°54.85 334.8 11.1 327 8.9
2006-11-21 07:49:07 51°14.569 2°54.836 335 11.3 328 9
2006-11-21 07:49:12 51°14.582 2°54.823 335.5 11.5 328 8.8
2006-11-21 07:49:17 51°14.596 2°54.81 337 11.6 330 8.8
2006-11-21 07:49:21 51°14.608 2°54.799 337.7 11.8 330 8.8
2006-11-21 07:49:27 51°14.625 2°54.784 338.6 12 331 8.9
2006-11-21 07:49:31 51°14.637 2°54.773 338.6 12 330 8.6
2006-11-21 07:49:37 51°14.655 2°54.759 340 12.2 333 8.6
2006-11-21 07:49:42 51°14.67 2°54.746 341.6 12.3 333 8.7
2006-11-21 07:49:45 51°14.68 2°54.739 342.3 12.3 334 8.6
2006-11-21 07:49:52 51°14.701 2°54.723 342.9 12.3 334 8.7
2006-11-21 07:49:56 51°14.714 2°54.714 343.6 12.4 335 8.7
2006-11-21 07:50:01 51°14.729 2°54.702 344 12.4 335 8.8
2006-11-21 07:50:07 51°14.748 2°54.689 344 12.6 336 8.6
2006-11-21 07:50:12 51°14.764 2°54.677 344.1 12.6 336 8.6
2006-11-21 07:50:17 51°14.78 2°54.666 344.5 12.6 336 8.5
2006-11-21 07:50:22 51°14.796 2°54.653 344.2 12.7 334 8.4
2006-11-21 07:50:27 51°14.812 2°54.64 342.5 12.7 332 8.6
2006-11-21 07:50:32 51°14.827 2°54.626 340.9 12.7 331 8.5
2006-11-21 07:50:37 51°14.842 2°54.612 339.7 12.8 330 8.9
2006-11-21 07:50:41 51°14.854 2°54.6 338.3 12.9 329 8.9
2006-11-21 07:50:47 51°14.873 2°54.583 337.6 12.7 329 8.3
2006-11-21 07:50:52 51°14.888 2°54.568 338 12.8 329 8.4
2006-11-21 07:50:57 51°14.903 2°54.553 337.7 12.9 329 8.4
2006-11-21 07:51:02 51°14.918 2°54.539 337.1 12.9 329 8.6
2006-11-21 07:51:07 51°14.933 2°54.524 336.8 12.8 329 8.5
2006-11-21 07:51:12 51°14.949 2°54.511 337.2 12.7 330 8.3
2006-11-21 07:51:16 51°14.961 2°54.5 339.4 12.6 332 8.2
2006-11-21 07:51:22 51°14.98 2°54.486 341.9 12.7 334 8.1
2006-11-21 07:51:27 51°14.996 2°54.475 343.6 12.5 336 7.8
2006-11-21 07:51:32 51°15.012 2°54.464 344.9 12.4 336 7.9
2006-11-21 07:51:37 51°15.028 2°54.452 344.7 12.4 336 7.9
2006-11-21 07:51:41 51°15.04 2°54.443 342.1 12.4 334 7.7
2006-11-21 07:51:47 51°15.058 2°54.426 342.5 12.4 331 7.7
2006-11-21 07:51:52 51°15.073 2°54.412 339.6 12.5 329 7.8
2006-11-21 07:51:56 51°15.084 2°54.399 337.4 12.5 326 8
2006-11-21 07:52:02 51°15.1 2°54.378 333.4 12.7 323 8.1
2006-11-21 07:52:07 51°15.114 2°54.361 331.2 12.6 321 8
2006-11-21 07:52:12 51°15.127 2°54.342 329.4 12.7 319 8.2
2006-11-21 07:52:16 51°15.138 2°54.327 328 12.8 319 8.2
2006-11-21 07:52:21 51°15.151 2°54.308 327.8 12.7 319 8.3
2006-11-21 07:52:27 51°15.168 2°54.287 328.3 12.9 321 8.3
2006-11-21 07:52:32 51°15.182 2°54.269 328.8 12.7 321 8.2
2006-11-21 07:52:36 51°15.193 2°54.255 330.3 12.9 321 8.5
2006-11-21 07:52:41 51°15.207 2°54.237 330.7 12.9 321 8.4
2006-11-21 07:52:47 51°15.224 2°54.216 331.5 13 322 8.5
2006-11-21 07:52:52 51°15.238 2°54.199 332.2 13 322 8.3
2006-11-21 07:52:57 51°15.252 2°54.182 332.9 13 323 8.4
2006-11-21 07:53:01 51°15.264 2°54.169 333.3 12.7 325 8.4
2006-11-21 07:53:07 51°15.281 2°54.149 333.6 12.8 325 8.6
2006-11-21 07:53:12 51°15.296 2°54.132 334.5 12.8 325 8.7
2006-11-21 07:53:16 51°15.308 2°54.119 334.1 13 324 8.8
2006-11-21 07:53:22 51°15.325 2°54.099 334.1 12.7 325 8.7
2006-11-21 07:53:27 51°15.339 2°54.083 333.8 12.8 324 8.9
2006-11-21 07:53:31 51°15.351 2°54.068 333.8 12.9 323 8.9
2006-11-21 07:53:37 51°15.368 2°54.048 333.1 12.9 324 8.9
2006-11-21 07:53:41 51°15.379 2°54.035 333.4 12.8 323 9.2
2006-11-21 07:53:47 51°15.397 2°54.014 333.1 12.9 324 9.2
2006-11-21 07:53:52 51°15.411 2°53.997 333.1 12.9 323 9.2
2006-11-21 07:53:56 51°15.423 2°53.984 334 13 326 9.2
2006-11-21 07:54:02 51°15.441 2°53.964 334.5 12.9 325 9.2
2006-11-21 07:54:07 51°15.455 2°53.948 335.9 13 326 9.5
2006-11-21 07:54:12 51°15.471 2°53.933 335.9 12.9 327 9.5
2006-11-21 07:54:17 51°15.485 2°53.916 336.3 13 325 9.5
2006-11-21 07:54:22 51°15.5 2°53.901 336.3 12.9 327 9.6
2006-11-21 07:54:27 51°15.515 2°53.885 336.2 12.9 326 9.6
2006-11-21 07:54:32 51°15.53 2°53.869 336.7 13 326 9.7
2006-11-21 07:54:37 51°15.545 2°53.854 336.5 12.9 327 9.6
2006-11-21 07:54:41 51°15.557 2°53.841 336.8 12.7 327 9.6
2006-11-21 07:54:46 51°15.572 2°53.827 336.6 12.7 329 9.5
2006-11-21 07:54:52 51°15.59 2°53.809 337.5 12.6 327 9.6
2006-11-21 07:54:56 51°15.602 2°53.797 337.7 12.7 327 9.7
2006-11-21 07:55:01 51°15.616 2°53.781 336.7 12.8 326 9.9
2006-11-21 07:55:07 51°15.633 2°53.762 336.2 12.8 326 9.9
2006-11-21 07:55:12 51°15.648 2°53.746 336.2 12.6 326 9.9
2006-11-21 07:55:17 51°15.663 2°53.731 336.2 12.7 327 10.1
2006-11-21 07:55:22 51°15.678 2°53.715 336.5 12.8 326 10.1
2006-11-21 07:55:27 51°15.693 2°53.699 336.2 12.8 326 10.1
2006-11-21 07:55:31 51°15.704 2°53.687 336.2 12.8 326 10.3
2006-11-21 07:55:37 51°15.722 2°53.669 336.5 12.7 327 10.1
2006-11-21 07:55:42 51°15.738 2°53.655 337.3 12.7 329 10.3
2006-11-21 07:55:47 51°15.752 2°53.64 337.5 12.7 328 10.2
2006-11-21 07:55:51 51°15.764 2°53.628 337.9 12.6 328 10.1
2006-11-21 07:55:57 51°15.782 2°53.61 337.6 12.7 327 10.3
2006-11-21 07:56:02 51°15.797 2°53.595 336.8 12.7 327 10.3
2006-11-21 07:56:07 51°15.812 2°53.58 336.6 12.7 327 10.3
2006-11-21 07:56:11 51°15.824 2°53.568 336.4 12.7 327 10.4
2006-11-21 07:56:17 51°15.841 2°53.549 336 12.4 327 10.7
2006-11-21 07:56:22 51°15.856 2°53.535 336.2 12.3 329 10.7
2006-11-21 07:56:27 51°15.87 2°53.52 337 12.5 327 10.6
2006-11-21 07:56:31 51°15.882 2°53.508 337.1 12.6 328 10.7
2006-11-21 07:56:37 51°15.9 2°53.491 337 12.5 328 10.7
2006-11-21 07:56:41 51°15.912 2°53.479 337 12.5 328 10.9
2006-11-21 07:56:47 51°15.93 2°53.462 337.5 12.5 329 10.8
2006-11-21 07:56:51 51°15.942 2°53.451 337.9 12.5 328 10.8
2006-11-21 07:56:57 51°15.96 2°53.434 338.2 12.5 330 11
2006-11-21 07:57:01 51°15.972 2°53.422 338.6 12.5 329 11
2006-11-21 07:57:07 51°15.99 2°53.406 338.8 12.5 330 10.9
2006-11-21 07:57:12 51°16.005 2°53.392 339 12.6 330 10.9
2006-11-21 07:57:17 51°16.02 2°53.378 339.2 12.4 330 11.2
2006-11-21 07:57:21 51°16.032 2°53.367 339.1 12.5 330 11.1
2006-11-21 07:57:27 51°16.049 2°53.35 339.1 12.6 329 11.2
2006-11-21 07:57:32 51°16.065 2°53.337 339.1 12.3 331 11.2
2006-11-21 07:57:37 51°16.08 2°53.324 340.2 12.4 331 11.2
2006-11-21 07:57:41 51°16.092 2°53.313 340.1 12.4 330 11.2
2006-11-21 07:57:47 51°16.11 2°53.297 339.7 12.5 331 11.1
2006-11-21 07:57:51 51°16.122 2°53.287 340.4 12.6 332 11.1
2006-11-21 07:57:57 51°16.141 2°53.271 340.7 12.3 332 11.3
2006-11-21 07:58:02 51°16.156 2°53.257 340.5 12.3 331 11.3
2006-11-21 07:58:06 51°16.168 2°53.246 339.6 12.6 330 11.2
2006-11-21 07:58:11 51°16.182 2°53.234 339.8 12.3 331 11.1
2006-11-21 07:58:17 51°16.201 2°53.218 340.2 12.2 332 11.4
2006-11-21 07:58:22 51°16.216 2°53.205 341.1 12.3 332 11.4
2006-11-21 07:58:27 51°16.231 2°53.193 340.8 12.4 332 11.3
2006-11-21 07:58:31 51°16.243 2°53.183 341 12.4 333 11.3
2006-11-21 07:58:37 51°16.261 2°53.167 341.3 12.3 333 11.4
2006-11-21 07:58:42 51°16.277 2°53.155 341.5 12.4 334 11.4
2006-11-21 07:58:47 51°16.292 2°53.142 341.5 12.4 333 11.5
2006-11-21 07:58:52 51°16.308 2°53.13 341.2 12.4 333 11.5
2006-11-21 07:58:57 51°16.323 2°53.118 341.4 12.5 333 11.7
2006-11-21 07:59:02 51°16.338 2°53.105 341.1 12.4 333 11.5
2006-11-21 07:59:07 51°16.354 2°53.092 341.2 12.4 333 11.6
2006-11-21 07:59:12 51°16.368 2°53.081 340.4 12.3 333 23.7
2006-11-21 07:59:17 51°16.384 2°53.068 340.4 12.1 333 11.1
2006-11-21 07:59:21 51°16.395 2°53.057 340.7 12.2 331 11.3
2006-11-21 07:59:26 51°16.41 2°53.045 340.4 12.2 333 11.3
2006-11-21 07:59:31 51°16.426 2°53.033 341.1 12.3 332 11.4
2006-11-21 07:59:37 51°16.444 2°53.019 341.2 12.1 333 11.2
2006-11-21 07:59:41 51°16.456 2°53.01 342 12.2 334 11.3
2006-11-21 07:59:47 51°16.474 2°52.995 341.8 12.4 333 11.3
2006-11-21 07:59:52 51°16.49 2°52.984 341.6 12.2 334 11
2006-11-21 07:59:56 51°16.502 2°52.974 341.8 12.1 334 11.3
2006-11-21 08:00:01 51°16.517 2°52.962 341.8 12.2 333 11.2
2006-11-21 08:00:07 51°16.536 2°52.948 341.6 12.2 334 11.2
2006-11-21 08:00:11 51°16.548 2°52.938 341.3 12.2 333 11.2
2006-11-21 08:00:17 51°16.566 2°52.923 340.5 12.3 335 11.1
2006-11-21 08:00:22 51°16.581 2°52.911 341.1 12.4 333 11
2006-11-21 08:00:27 51°16.597 2°52.899 341.4 12.3 334 11
2006-11-21 08:00:32 51°16.612 2°52.887 341.7 12.4 334 11.1
2006-11-21 08:00:37 51°16.627 2°52.875 341.5 12.4 334 11
2006-11-21 08:00:42 51°16.643 2°52.862 341.2 12.4 333 11.2
2006-11-21 08:00:47 51°16.658 2°52.851 341.3 12.2 335 10.9
2006-11-21 08:00:51 51°16.67 2°52.841 342 12.2 334 10.8
2006-11-21 08:00:57 51°16.688 2°52.827 341.9 12.3 333 10.4
2006-11-21 08:01:01 51°16.701 2°52.817 341.6 12.3 334 10.5
2006-11-21 08:01:07 51°16.719 2°52.803 341.8 12.2 335 10.5
2006-11-21 08:01:12 51°16.734 2°52.793 341.9 12.1 336 10.1
2006-11-21 08:01:17 51°16.75 2°52.782 344 12.1 336 9.8
2006-11-21 08:01:21 51°16.762 2°52.773 344.1 12.1 337 9.5
2006-11-21 08:01:27 51°16.781 2°52.762 345.2 12.1 338 9.2
2006-11-21 08:01:32 51°16.797 2°52.752 345.4 12 337 9.1
2006-11-21 08:01:37 51°16.812 2°52.742 346.4 12.1 338 9.2
2006-11-21 08:01:41 51°16.824 2°52.734 346.3 12.1 338 9.2
2006-11-21 08:01:47 51°16.843 2°52.722 346.4 12.2 337 9
2006-11-21 08:01:51 51°16.856 2°52.713 346.2 12.2 337 9
2006-11-21 08:01:57 51°16.874 2°52.701 346.2 12.2 337 9
2006-11-21 08:02:01 51°16.887 2°52.693 345.9 12.2 337 9
2006-11-21 08:02:07 51°16.905 2°52.68 345.7 12.2 337 9.1
2006-11-21 08:02:12 51°16.921 2°52.67 345.4 12.2 337 9.2
2006-11-21 08:02:17 51°16.937 2°52.661 345.4 12.2 339 9.3
2006-11-21 08:02:21 51°16.949 2°52.653 346.6 12.1 339 9.3
2006-11-21 08:02:27 51°16.968 2°52.642 346.8 12.2 339 9.5
2006-11-21 08:02:31 51°16.981 2°52.634 346.8 12.2 339 9.5
2006-11-21 08:02:37 51°17 2°52.622 347.6 12.1 339 9.6
2006-11-21 08:02:42 51°17.016 2°52.613 347.6 12.2 339 9.5
2006-11-21 08:02:47 51°17.032 2°52.604 348 12.1 340 9.5
2006-11-21 08:02:51 51°17.045 2°52.598 349.2 12.1 343 9.3
2006-11-21 08:02:56 51°17.061 2°52.591 351.9 12 344 9.3
2006-11-21 08:03:01 51°17.077 2°52.584 352.8 12 345 9.3
2006-11-21 08:03:07 51°17.096 2°52.577 354 11.9 347 9.3
2006-11-21 08:03:11 51°17.109 2°52.573 355.4 11.9 349 9.3
2006-11-21 08:03:17 51°17.128 2°52.568 357 12 351 9.3
2006-11-21 08:03:21 51°17.142 2°52.565 358 11.8 351 8.9
2006-11-21 08:03:27 51°17.162 2°52.561 359.4 12 351 8.8
2006-11-21 08:03:32 51°17.178 2°52.557 359 12 351 9.1
2006-11-21 08:03:36 51°17.191 2°52.554 359.5 12 352 9.1
2006-11-21 08:03:41 51°17.207 2°52.549 359.4 12 350 9.4
2006-11-21 08:03:47 51°17.227 2°52.545 359.7 12.1 351 9.6
2006-11-21 08:03:52 51°17.244 2°52.541 359.9 12 352 9.6
2006-11-21 08:03:57 51°17.26 2°52.537 359.3 12 351 9.7
2006-11-21 08:04:01 51°17.273 2°52.533 359 12 351 9.8
2006-11-21 08:04:07 51°17.293 2°52.529 359.4 12.1 352 9.7
2006-11-21 08:04:12 51°17.31 2°52.526 359.6 12.1 353 9.9
2006-11-21 08:04:17 51°17.327 2°52.522 359.9 12.1 351 9.8
2006-11-21 08:04:21 51°17.34 2°52.52 0.1 12 352 9.7
2006-11-21 08:04:27 51°17.36 2°52.516 0.7 12 354 9.6
2006-11-21 08:04:32 51°17.376 2°52.514 0.7 12.1 355 9.4
2006-11-21 08:04:37 51°17.393 2°52.509 2.1 12.1 352 9.1
2006-11-21 08:04:42 51°17.41 2°52.508 1.1 12 352 9.3
2006-11-21 08:04:47 51°17.426 2°52.504 1.4 12 353 9.7
2006-11-21 08:04:51 51°17.439 2°52.502 1.2 12 353 10
2006-11-21 08:04:57 51°17.459 2°52.498 0.9 12 353 10.1
2006-11-21 08:05:01 51°17.473 2°52.496 1.2 11.9 353 10.5
2006-11-21 08:05:07 51°17.493 2°52.491 0.9 12 353 10.4
2006-11-21 08:05:12 51°17.509 2°52.489 0.4 12 355 10.3
2006-11-21 08:05:16 51°17.523 2°52.486 1.2 12.1 353 10
2006-11-21 08:05:21 51°17.539 2°52.484 1.8 11.9 356 9.9
2006-11-21 08:05:27 51°17.559 2°52.481 2.9 11.8 354 10
2006-11-21 08:05:31 51°17.572 2°52.479 3.3 11.9 356 10
2006-11-21 08:05:36 51°17.588 2°52.478 4.1 12 356 9.9
2006-11-21 08:05:41 51°17.604 2°52.476 4.6 11.7 358 10
2006-11-21 08:05:47 51°17.624 2°52.474 5 11.8 354 10.1
2006-11-21 08:05:51 51°17.637 2°52.473 5.1 11.8 358 9.9
2006-11-21 08:05:56 51°17.654 2°52.471 4.6 11.8 355 9.7
2006-11-21 08:06:01 51°17.67 2°52.471 6.1 11.9 -999 9.8
2006-11-21 08:06:07 51°17.69 2°52.467 4.6 12 353 9.9
2006-11-21 08:06:12 51°17.706 2°52.469 5 11.8 1 9.9
2006-11-21 08:06:17 51°17.723 2°52.465 5.7 11.8 355 9.9
2006-11-21 08:06:22 51°17.739 2°52.467 4.6 11.9 2 9.9
2006-11-21 08:06:27 51°17.755 2°52.463 5.1 12 352 10
2006-11-21 08:06:32 51°17.772 2°52.464 5.7 11.8 1 10.1
2006-11-21 08:06:37 51°17.788 2°52.462 4.6 11.8 355 9.7
2006-11-21 08:06:42 51°17.804 2°52.461 5.8 11.8 -999 9.9
2006-11-21 08:06:47 51°17.821 2°52.46 4.1 11.8 355 9.9
2006-11-21 08:06:52 51°17.837 2°52.461 6.7 11.8 2 9.8
2006-11-21 08:06:57 51°17.853 2°52.463 8.6 11.6 1 10.1
2006-11-21 08:07:01 51°17.866 2°52.467 13.9 12 12 10.3
2006-11-21 08:07:07 51°17.886 2°52.468 12.6 12 -999 10.3
2006-11-21 08:07:11 51°17.898 2°52.476 16.6 11.5 14 10.3
2006-11-21 08:07:17 51°17.918 2°52.478 16.9 11.9 4 10.3
2006-11-21 08:07:21 51°17.93 2°52.483 17.1 11.8 11 10.4
2006-11-21 08:07:27 51°17.949 2°52.49 18 11.7 12 10.4
2006-11-21 08:07:32 51°17.966 2°52.495 20.1 11.8 12 10.3
2006-11-21 08:07:37 51°17.982 2°52.501 20.3 12 12 10.3
2006-11-21 08:07:42 51°17.998 2°52.505 18.8 11.9 11 10.4
2006-11-21 08:07:47 51°18.014 2°52.512 17.8 11.8 14 10.3
2006-11-21 08:07:51 51°18.027 2°52.515 20.1 12 12 10.2
2006-11-21 08:07:57 51°18.046 2°52.524 21 12 14 10.2
2006-11-21 08:08:01 51°18.059 2°52.529 21 12.1 15 10.2
2006-11-21 08:08:07 51°18.078 2°52.538 21.4 11.9 14 10.2
2006-11-21 08:08:12 51°18.093 2°52.549 26.1 11.9 25 10.3
2006-11-21 08:08:16 51°18.106 2°52.557 27.2 12.2 20 10.4
2006-11-21 08:08:21 51°18.121 2°52.569 31.1 12.1 26 10.3
2006-11-21 08:08:26 51°18.135 2°52.581 33.3 11.8 28 10.5
2006-11-21 08:08:32 51°18.15 2°52.601 37.9 11.7 38 10.5
2006-11-21 08:08:37 51°18.163 2°52.616 42.7 11.8 38 10.5
2006-11-21 08:08:42 51°18.175 2°52.635 43.7 12.1 40 10.5
2006-11-21 08:08:47 51°18.188 2°52.652 45.2 11.8 40 10.6
2006-11-21 08:08:52 51°18.198 2°52.673 49.1 11.7 50 10.6
2006-11-21 08:08:57 51°18.21 2°52.691 52.1 12 47 10.6
2006-11-21 08:09:01 51°18.217 2°52.708 52.1 11.8 48 10.7
2006-11-21 08:09:05 51°18.224 2°52.725 56.6 11.9 55 10.7
2006-11-21 08:09:11 51°18.237 2°52.749 57.1 11.7 51 10.8
2006-11-21 08:09:17 51°18.246 2°52.777 57.2 11.9 62 10.7
2006-11-21 08:09:22 51°18.258 2°52.795 59.6 12.1 53 10.7
2006-11-21 08:09:27 51°18.266 2°52.817 54 11.6 55 10.7
2006-11-21 08:09:31 51°18.275 2°52.832 57.7 11.5 51 10.8
2006-11-21 08:09:37 51°18.287 2°52.858 56.4 11.9 53 10.7
2006-11-21 08:09:41 51°18.296 2°52.873 54.9 12 48 10.7
2006-11-21 08:09:47 51°18.309 2°52.897 52.7 12 48 10.7
2006-11-21 08:09:51 51°18.318 2°52.913 53.3 11.8 50 10.8
2006-11-21 08:09:57 51°18.33 2°52.936 53.1 11.7 48 10.8
2006-11-21 08:10:01 51°18.339 2°52.951 53.8 11.6 49 10.9
2006-11-21 08:10:07 51°18.351 2°52.977 52.9 11.9 52 10.8
2006-11-21 08:10:11 51°18.361 2°52.991 53.4 12.1 46 10.8
2006-11-21 08:10:17 51°18.374 2°53.015 52 11.8 48 10.8
2006-11-21 08:10:21 51°18.382 2°53.032 53.8 11.9 51 10.7
2006-11-21 08:10:27 51°18.397 2°53.054 53.7 12.2 44 10.8
2006-11-21 08:10:32 51°18.406 2°53.075 51.5 11.5 52 10.9
2006-11-21 08:10:36 51°18.414 2°53.092 56.3 11.9 54 10.9
2006-11-21 08:10:41 51°18.426 2°53.112 52.5 12.1 45 10.8
2006-11-21 08:10:47 51°18.439 2°53.134 52.9 11.8 48 10.7
2006-11-21 08:10:51 51°18.448 2°53.149 50.8 11.6 45 10.8
2006-11-21 08:10:57 51°18.46 2°53.175 51.2 12.1 52 10.7
2006-11-21 08:11:01 51°18.471 2°53.188 52.1 12.3 40 10.8
2006-11-21 08:11:07 51°18.484 2°53.212 49.1 12.1 48 10.9
2006-11-21 08:11:12 51°18.497 2°53.229 51.1 11.9 47 10.9
2006-11-21 08:11:17 51°18.507 2°53.252 51.3 12.2 52 11
2006-11-21 08:11:21 51°18.518 2°53.264 51.3 12 42 11.1
2006-11-21 08:11:27 51°18.53 2°53.289 51.1 12 51 11
2006-11-21 08:11:31 51°18.541 2°53.302 51.2 12.1 41 11.1
2006-11-21 08:11:37 51°18.555 2°53.326 48.5 12.2 47 10.9
2006-11-21 08:11:41 51°18.566 2°53.338 47.9 12.2 41 11
2006-11-21 08:11:47 51°18.579 2°53.362 48.2 12.1 46 11
2006-11-21 08:11:51 51°18.589 2°53.376 49.2 12.2 44 11.1
2006-11-21 08:11:57 51°18.604 2°53.399 47.9 12 43 11.2
2006-11-21 08:12:01 51°18.613 2°53.414 50.6 12.3 46 11.2
2006-11-21 08:12:06 51°18.627 2°53.432 48.2 12.4 40 11.1
2006-11-21 08:12:12 51°18.642 2°53.455 48.6 12.5 44 11
2006-11-21 08:12:16 51°18.652 2°53.47 48 12.7 41 11
2006-11-21 08:12:21 51°18.666 2°53.486 44.5 12.2 37 11
2006-11-21 08:12:27 51°18.68 2°53.509 47.5 12.2 46 11.1
2006-11-21 08:12:31 51°18.69 2°53.523 48 12.2 41 11.1
2006-11-21 08:12:36 51°18.702 2°53.544 49.1 12.3 48 11
2006-11-21 08:12:42 51°18.717 2°53.565 50 12.2 41 11.1
2006-11-21 08:12:47 51°18.727 2°53.585 49.3 11.9 49 11.2
2006-11-21 08:12:51 51°18.737 2°53.6 51.5 12.3 45 11.2
2006-11-21 08:12:56 51°18.75 2°53.618 47.9 12.2 42 11.1
2006-11-21 08:13:01 51°18.762 2°53.638 50.2 12.2 47 11.1
2006-11-21 08:13:07 51°18.776 2°53.66 50.5 12.1 43 11.2
2006-11-21 08:13:12 51°18.788 2°53.679 51.1 11.9 45 11.2
2006-11-21 08:13:17 51°18.8 2°53.699 50.5 12.3 45 11.2
2006-11-21 08:13:21 51°18.81 2°53.714 48 12.8 45 11.3
2006-11-21 08:13:27 51°18.825 2°53.734 44.6 11.9 37 11.2
2006-11-21 08:13:32 51°18.837 2°53.754 50.4 12.2 50 11.2
2006-11-21 08:13:37 51°18.85 2°53.769 46.8 12.1 34 11.2
2006-11-21 08:13:41 51°18.858 2°53.788 49.2 12.2 53 11.2
2006-11-21 08:13:47 51°18.875 2°53.804 48.8 12.3 30 11.2
2006-11-21 08:13:51 51°18.884 2°53.82 44.7 11.8 45 11.4
2006-11-21 08:13:57 51°18.9 2°53.839 46.4 11.8 37 11.4
2006-11-21 08:14:01 51°18.91 2°53.853 44.2 11.9 38 11.5
2006-11-21 08:14:05 51°18.92 2°53.868 46.1 12.1 42 11.6
2006-11-21 08:14:11 51°18.936 2°53.888 44.9 11.9 38 11.6
2006-11-21 08:14:17 51°18.951 2°53.909 46.5 11.9 42 11.6
2006-11-21 08:14:21 51°18.96 2°53.922 47 11.8 40 11.7
2006-11-21 08:14:27 51°18.975 2°53.945 47.2 11.8 45 11.6
2006-11-21 08:14:31 51°18.985 2°53.958 47.9 11.9 40 11.5
2006-11-21 08:14:37 51°18.998 2°53.982 48.9 11.9 47 11.4
2006-11-21 08:14:42 51°19.011 2°53.999 51.9 12.2 47 11.5
2006-11-21 08:14:47 51°19.023 2°54.018 47.1 12.1 41 11.5
2006-11-21 08:14:51 51°19.033 2°54.031 48.3 12 43 11.5
2006-11-21 08:14:57 51°19.047 2°54.053 48.7 12 44 11.5
2006-11-21 08:15:01 51°19.057 2°54.066 45.9 11.6 38 11.5
2006-11-21 08:15:07 51°19.071 2°54.09 51.5 12.3 51 11.6
2006-11-21 08:15:11 51°19.083 2°54.1 44.7 12.4 30 11.3
2006-11-21 08:15:17 51°19.097 2°54.124 47 12.1 49 11.5
2006-11-21 08:15:21 51°19.107 2°54.136 46.1 11.9 35 11.5
2006-11-21 08:15:27 51°19.121 2°54.16 48.3 12.3 49 11.7
2006-11-21 08:15:32 51°19.133 2°54.178 48.2 12.1 39 11.7
2006-11-21 08:15:37 51°19.144 2°54.198 52.4 12 53 11.7
2006-11-21 08:15:42 51°19.155 2°54.218 50.5 11.9 43 11.7
2006-11-21 08:15:47 51°19.169 2°54.234 51.7 12 42 11.7
2006-11-21 08:15:52 51°19.18 2°54.253 48.1 11.9 45 11.7
2006-11-21 08:15:57 51°19.192 2°54.271 48 11.9 43 11.6
2006-11-21 08:16:01 51°19.203 2°54.283 47.9 12.1 37 11.6
2006-11-21 08:16:07 51°19.218 2°54.305 45.1 12 43 11.7
2006-11-21 08:16:12 51°19.231 2°54.321 44.7 11.8 37 11.7
2006-11-21 08:16:17 51°19.243 2°54.34 47.9 12.3 47 11.8
2006-11-21 08:16:21 51°19.254 2°54.352 45.8 11.9 35 11.9
2006-11-21 08:16:27 51°19.267 2°54.378 50.6 12.5 52 11.8
2006-11-21 08:16:31 51°19.279 2°54.388 46.9 12.3 34 11.9
2006-11-21 08:16:37 51°19.291 2°54.413 48.3 11.7 51 11.9
2006-11-21 08:16:41 51°19.302 2°54.424 48.5 12 41 11.9
2006-11-21 08:16:47 51°19.317 2°54.446 44.4 11.8 42 11.7
2006-11-21 08:16:52 51°19.33 2°54.462 48.1 11.9 41 11.6
2006-11-21 08:16:56 51°19.341 2°54.475 45.3 12.1 38 11.8
2006-11-21 08:17:01 51°19.352 2°54.494 47.9 11.9 46 11.8
2006-11-21 08:17:07 51°19.366 2°54.516 47.3 11.8 41 11.7
2006-11-21 08:17:11 51°19.376 2°54.531 49.6 12.2 48 11.9
2006-11-21 08:17:17 51°19.39 2°54.552 47.2 11.7 40 11.8
2006-11-21 08:17:21 51°19.4 2°54.567 50 12 49 11.9
2006-11-21 08:17:27 51°19.415 2°54.588 47.8 12 39 11.9
2006-11-21 08:17:32 51°19.427 2°54.605 49.2 11.6 45 12
2006-11-21 08:17:36 51°19.437 2°54.619 47.1 11.8 41 11.8
2006-11-21 08:17:41 51°19.449 2°54.638 47.7 12.1 43 11.9
2006-11-21 08:17:47 51°19.463 2°54.658 45.6 11.5 40 11.9
2006-11-21 08:17:52 51°19.475 2°54.676 50.5 11.5 48 12
2006-11-21 08:17:57 51°19.487 2°54.694 49.6 11.9 43 12
2006-11-21 08:18:01 51°19.496 2°54.709 48.8 11.9 44 11.9
2006-11-21 08:18:07 51°19.511 2°54.73 48.2 12.1 42 12
2006-11-21 08:18:11 51°19.521 2°54.745 47.9 12.1 43 11.8
2006-11-21 08:18:16 51°19.532 2°54.765 50.2 12.4 46 11.9
2006-11-21 08:18:21 51°19.545 2°54.781 45.2 11.6 38 12
2006-11-21 08:18:27 51°19.559 2°54.804 50.4 12 49 11.9
2006-11-21 08:18:31 51°19.57 2°54.816 46.4 12.2 37 12
2006-11-21 08:18:37 51°19.583 2°54.84 46 11.8 46 11.9
2006-11-21 08:18:41 51°19.594 2°54.852 48.6 12.1 38 11.9
2006-11-21 08:18:45 51°19.604 2°54.866 45.1 11.7 40 12.1
2006-11-21 08:18:51 51°19.617 2°54.888 46.3 11.7 47 12
2006-11-21 08:18:57 51°19.633 2°54.907 47.9 12 39 11.9
2006-11-21 08:19:01 51°19.643 2°54.921 44.4 11.9 35 12
2006-11-21 08:19:07 51°19.658 2°54.944 49.2 12.2 45 12.1
2006-11-21 08:19:12 51°19.671 2°54.96 45.3 12.2 35 12.2
2006-11-21 08:19:17 51°19.682 2°54.979 45.9 11.5 44 12.3
2006-11-21 08:19:21 51°19.692 2°54.992 49.2 11.7 44 12.4
2006-11-21 08:19:27 51°19.707 2°55.013 45.7 11.9 41 12.3
2006-11-21 08:19:31 51°19.717 2°55.028 47 12.3 42 12.2
2006-11-21 08:19:37 51°19.734 2°55.048 44.9 12.5 36 12.1
2006-11-21 08:19:41 51°19.745 2°55.062 44 12.3 40 12.3
2006-11-21 08:19:47 51°19.759 2°55.082 43.9 11.8 37 12.1
2006-11-21 08:19:52 51°19.772 2°55.1 48.6 12.3 46 12.1
2006-11-21 08:19:57 51°19.785 2°55.118 44.9 12.2 36 12.1
2006-11-21 08:20:01 51°19.794 2°55.132 48.1 12.1 49 12.1
2006-11-21 08:20:07 51°19.809 2°55.153 45.3 11.7 40 12.1
2006-11-21 08:20:12 51°19.822 2°55.169 48.6 11.9 42 12.2
2006-11-21 08:20:17 51°19.834 2°55.188 46.8 12.2 42 12.2
2006-11-21 08:20:21 51°19.845 2°55.2 44.2 11.9 37 12.3
2006-11-21 08:20:27 51°19.86 2°55.222 47.1 12.1 45 12.4
2006-11-21 08:20:32 51°19.873 2°55.238 44.9 12 35 12.5
2006-11-21 08:20:36 51°19.882 2°55.254 46 12.3 48 12.5
2006-11-21 08:20:42 51°19.899 2°55.271 45.4 12.2 31 12.3
2006-11-21 08:20:47 51°19.911 2°55.289 44 11.7 43 12.4
2006-11-21 08:20:51 51°19.921 2°55.305 47.1 12.6 44 12.3
2006-11-21 08:20:57 51°19.938 2°55.323 42.9 12.2 32 12.4
2006-11-21 08:21:01 51°19.946 2°55.34 48.1 11.6 48 12.3
2006-11-21 08:21:07 51°19.962 2°55.36 48.8 12.2 39 12.3
2006-11-21 08:21:11 51°19.97 2°55.376 47.7 12.1 47 12.4
2006-11-21 08:21:16 51°19.981 2°55.396 50.7 11.9 49 12.4
2006-11-21 08:21:21 51°19.992 2°55.416 53.9 12.2 49 12.4
2006-11-21 08:21:27 51°20.006 2°55.441 54 12.5 49 12.4
2006-11-21 08:21:32 51°20.017 2°55.461 52.1 12.2 48 12.6
2006-11-21 08:21:37 51°20.026 2°55.483 53.8 11.9 54 12.4
2006-11-21 08:21:42 51°20.039 2°55.503 56 12.3 50 12.3
2006-11-21 08:21:47 51°20.05 2°55.523 52.3 12.5 49 12.2
2006-11-21 08:21:51 51°20.059 2°55.539 52 11.9 49 12.4
2006-11-21 08:21:57 51°20.07 2°55.566 57.7 12.4 57 12.4
2006-11-21 08:22:01 51°20.08 2°55.582 56.1 12.5 47 12.5
2006-11-21 08:22:07 51°20.091 2°55.608 56 11.9 54 12.6
2006-11-21 08:22:12 51°20.102 2°55.629 56.5 12.1 52 12.5
2006-11-21 08:22:16 51°20.111 2°55.645 55.1 12.2 48 12.5
2006-11-21 08:22:21 51°20.121 2°55.665 55 11.9 52 12.6
2006-11-21 08:22:27 51°20.134 2°55.691 56.5 12.4 53 12.5
2006-11-21 08:22:32 51°20.145 2°55.712 54.1 12.3 47 12.5
2006-11-21 08:22:36 51°20.153 2°55.729 55.5 12.1 55 12.5
2006-11-21 08:22:41 51°20.164 2°55.749 55.1 12 50 12.3
2006-11-21 08:22:46 51°20.173 2°55.771 57.8 12.1 54 12.4
2006-11-21 08:22:52 51°20.186 2°55.796 55.8 12 50 12.5
2006-11-21 08:22:57 51°20.197 2°55.817 56.5 12.2 54 12.3
2006-11-21 08:23:02 51°20.207 2°55.84 56.3 12.6 52 12.3
2006-11-21 08:23:07 51°20.217 2°55.861 55 12.1 50 12.3
2006-11-21 08:23:12 51°20.227 2°55.884 60.1 12.6 61 12.4
2006-11-21 08:23:17 51°20.238 2°55.903 53.9 12 44 12.3
2006-11-21 08:23:22 51°20.248 2°55.927 58.8 12.5 61 12.6
2006-11-21 08:23:27 51°20.262 2°55.942 53.3 12.5 37 12.2
2006-11-21 08:23:32 51°20.271 2°55.964 49.7 11.4 49 12.3
2006-11-21 08:23:37 51°20.282 2°55.983 54.1 12 51 12.3
2006-11-21 08:23:41 51°20.291 2°55.998 52.4 11.8 47 12.4
2006-11-21 08:23:47 51°20.302 2°56.026 55.2 12.1 59 12.4
2006-11-21 08:23:51 51°20.312 2°56.043 56.6 12.8 48 12.4
2006-11-21 08:23:57 51°20.323 2°56.068 54.6 11.9 52 12.7
2006-11-21 08:24:01 51°20.328 2°56.088 60.9 11.5 62 12.5
2006-11-21 08:24:07 51°20.338 2°56.117 66.5 12.7 60 12.5
2006-11-21 08:24:12 51°20.346 2°56.142 66 12.7 64 12.4
2006-11-21 08:24:16 51°20.351 2°56.162 67.7 12.1 66 12.7
2006-11-21 08:24:21 51°20.358 2°56.187 69.5 12.2 66 12.4
2006-11-21 08:24:26 51°20.363 2°56.214 72.6 12.8 71 12.4
2006-11-21 08:24:32 51°20.369 2°56.246 73.8 12.7 70 12.4
2006-11-21 08:24:37 51°20.374 2°56.273 75.5 12.4 75 12.4
2006-11-21 08:24:41 51°20.376 2°56.293 77.7 11.9 77 12.6
2006-11-21 08:24:46 51°20.378 2°56.319 81.6 12 83 12.4
2006-11-21 08:24:52 51°20.382 2°56.352 82.8 12.5 79 12.4
2006-11-21 08:24:57 51°20.384 2°56.379 81 12.2 81 12.3
2006-11-21 08:25:01 51°20.386 2°56.401 83.6 12.5 84 12.2
2006-11-21 08:25:07 51°20.392 2°56.433 80.5 12.7 74 12.1
2006-11-21 08:25:12 51°20.394 2°56.46 80.4 12.4 82 12.2
2006-11-21 08:25:16 51°20.396 2°56.482 82.8 12.1 81 12.2
2006-11-21 08:25:22 51°20.4 2°56.514 83.6 12.6 81 12.2
2006-11-21 08:25:27 51°20.405 2°56.541 80.1 12.4 74 12.4
2006-11-21 08:25:31 51°20.408 2°56.561 78.1 12 77 12.4
2006-11-21 08:25:37 51°20.412 2°56.593 78.3 12.3 76 12.1
2006-11-21 08:25:41 51°20.416 2°56.615 78.4 12.6 76 12.3
2006-11-21 08:25:47 51°20.42 2°56.648 80.2 12.6 79 12.2
2006-11-21 08:25:51 51°20.424 2°56.67 79.5 12.7 75 12.1
2006-11-21 08:25:57 51°20.43 2°56.701 75.9 12.3 72 12.1
2006-11-21 08:26:01 51°20.433 2°56.721 76.6 12.1 76 12.1
2006-11-21 08:26:07 51°20.437 2°56.755 78.4 12.7 79 11.9
2006-11-21 08:26:11 51°20.442 2°56.777 78.1 13.2 72 11.8
2006-11-21 08:26:17 51°20.449 2°56.808 74.8 12.4 71 12
2006-11-21 08:26:21 51°20.452 2°56.829 75.4 12 73 11.9
2006-11-21 08:26:27 51°20.459 2°56.861 75.9 12.7 72 11.9
2006-11-21 08:26:31 51°20.463 2°56.881 73.4 12.3 72 12
2006-11-21 08:26:37 51°20.469 2°56.912 75.1 12 73 12
2006-11-21 08:26:41 51°20.472 2°56.934 76.9 12.6 75 11.9
2006-11-21 08:26:47 51°20.479 2°56.965 73.9 12.4 70 12
2006-11-21 08:26:52 51°20.48 2°56.992 79.9 12 85 11.9
2006-11-21 08:26:56 51°20.482 2°57.015 84.9 12.6 82 11.8
2006-11-21 08:27:01 51°20.483 2°57.043 84.9 12.9 85 11.8
2006-11-21 08:27:07 51°20.484 2°57.075 84.8 12.1 85 12
2006-11-21 08:27:12 51°20.482 2°57.1 91.7 11.5 96 12.1
2006-11-21 08:27:17 51°20.482 2°57.129 95.3 12.4 93 11.9
2006-11-21 08:27:21 51°20.482 2°57.153 92.8 13.5 91 11.7
2006-11-21 08:27:26 51°20.482 2°57.182 90.5 13.1 88 11.9
2006-11-21 08:27:31 51°20.481 2°57.209 92.7 12.4 94 11.8
2006-11-21 08:27:37 51°20.48 2°57.242 94.3 12.3 92 11.9
2006-11-21 08:27:41 51°20.479 2°57.265 93.7 12.8 92 11.9
2006-11-21 08:27:47 51°20.479 2°57.299 92.7 12.9 91 11.8
2006-11-21 08:27:51 51°20.477 2°57.322 94.7 13 96 11.8
2006-11-21 08:27:57 51°20.477 2°57.356 95 12.9 91 11.8
2006-11-21 08:28:01 51°20.475 2°57.379 95 12.9 95 11.7
2006-11-21 08:28:07 51°20.475 2°57.415 95.1 13.4 92 11.6
2006-11-21 08:28:11 51°20.476 2°57.438 90.7 13.2 86 11.6
2006-11-21 08:28:17 51°20.476 2°57.471 89.8 12.6 89 11.7
2006-11-21 08:28:21 51°20.478 2°57.492 87.8 12 84 11.8
2006-11-21 08:28:27 51°20.478 2°57.525 88.5 12.2 89 11.7
2006-11-21 08:28:31 51°20.48 2°57.548 88 12.9 84 11.5
2006-11-21 08:28:37 51°20.481 2°57.584 87 13.4 86 11.4
2006-11-21 08:28:41 51°20.483 2°57.608 87.4 13.5 85 11.5
2006-11-21 08:28:47 51°20.484 2°57.641 86.4 12.8 85 11.6
2006-11-21 08:28:52 51°20.484 2°57.668 88.8 12.3 90 11.7
2006-11-21 08:28:57 51°20.483 2°57.696 90.5 12.4 91 11.6
2006-11-21 08:29:01 51°20.483 2°57.72 93.6 13 93 11.5
2006-11-21 08:29:07 51°20.482 2°57.755 92.9 13.1 91 11.4
2006-11-21 08:29:12 51°20.481 2°57.785 94 13.5 94 11.4
2006-11-21 08:29:17 51°20.482 2°57.816 93.5 13.9 90 11.3
2006-11-21 08:29:22 51°20.482 2°57.845 90.7 13.6 88 11.3
2006-11-21 08:29:27 51°20.483 2°57.873 89.9 12.7 88 11.4
2006-11-21 08:29:32 51°20.483 2°57.9 89.6 12.5 89 11.4
2006-11-21 08:29:37 51°20.484 2°57.928 90.2 12.6 88 11.5
2006-11-21 08:29:41 51°20.484 2°57.951 90 12.6 89 11.4
2006-11-21 08:29:46 51°20.483 2°57.98 92.7 13.2 91 11.2
2006-11-21 08:29:52 51°20.485 2°58.016 92.5 13.6 87 11.2
2006-11-21 08:29:57 51°20.486 2°58.044 87.6 13 84 11.3
2006-11-21 08:30:01 51°20.489 2°58.065 85.5 12.2 84 11.4
2006-11-21 08:30:07 51°20.49 2°58.097 83.8 11.8 84 11.3
2006-11-21 08:30:12 51°20.496 2°58.125 84.6 13.1 77 11.1
2006-11-21 08:30:17 51°20.501 2°58.15 77.5 12.5 71 11.4
2006-11-21 08:30:21 51°20.502 2°58.171 79.3 11.7 79 11.2
2006-11-21 08:30:26 51°20.508 2°58.2 80.6 13.2 74 11.1
2006-11-21 08:30:31 51°20.515 2°58.226 73.2 13.2 67 11.1
2006-11-21 08:30:37 51°20.521 2°58.257 72.7 12 72 11.2
2006-11-21 08:30:42 51°20.525 2°58.283 77.8 12.1 77 11.3
2006-11-21 08:30:47 51°20.53 2°58.31 77.9 12.5 72 11.3
2006-11-21 08:30:52 51°20.536 2°58.336 76.4 12.5 72 11.3
2006-11-21 08:30:57 51°20.542 2°58.362 75.9 12.6 72 11.4
2006-11-21 08:31:02 51°20.549 2°58.386 72.6 12.2 66 11.5
2006-11-21 08:31:07 51°20.555 2°58.412 71.3 12.2 70 11.3
2006-11-21 08:31:11 51°20.563 2°58.431 70.4 12.8 60 11.2
2006-11-21 08:31:17 51°20.572 2°58.461 65.5 12.6 61 11.2
2006-11-21 08:31:21 51°20.579 2°58.48 67.3 12.5 63 11.2
2006-11-21 08:31:27 51°20.588 2°58.511 67.6 12.7 65 11.3
2006-11-21 08:31:32 51°20.598 2°58.533 65.3 12.5 59 11.4
2006-11-21 08:31:37 51°20.605 2°58.557 65.5 11.9 63 11.5
2006-11-21 08:31:41 51°20.611 2°58.577 67.7 12.3 64 11.3
2006-11-21 08:31:47 51°20.623 2°58.605 66.6 13 59 11.4
2006-11-21 08:31:52 51°20.633 2°58.626 60.7 12.2 53 11.4
2006-11-21 08:31:57 51°20.644 2°58.647 59.6 11.9 52 11.5
2006-11-21 08:32:02 51°20.656 2°58.667 57.3 12.4 49 11.3
2006-11-21 08:32:07 51°20.67 2°58.685 51.4 12.9 42 11.2
2006-11-21 08:32:11 51°20.682 2°58.696 44.8 12.6 33 11.3
2006-11-21 08:32:17 51°20.698 2°58.716 44.8 12.4 39 11.3
2006-11-21 08:32:21 51°20.71 2°58.728 41.9 12.5 31 11.5
2006-11-21 08:32:26 51°20.725 2°58.745 40.3 13 36 11.2
2006-11-21 08:32:32 51°20.745 2°58.757 37.4 12.8 21 11.2
2006-11-21 08:32:37 51°20.759 2°58.774 36.3 12.4 37 11.4
2006-11-21 08:32:41 51°20.772 2°58.782 38.4 12.8 24 11.2
2006-11-21 08:32:47 51°20.79 2°58.8 35.9 12.7 29 11.3
2006-11-21 08:32:52 51°20.806 2°58.812 37 12.5 28 11.3
2006-11-21 08:32:57 51°20.821 2°58.826 36.2 12.4 29 11.3
2006-11-21 08:33:01 51°20.833 2°58.837 37.7 12.7 30 11.3
2006-11-21 08:33:07 51°20.851 2°58.854 36.1 12.6 27 11.2
2006-11-21 08:33:12 51°20.867 2°58.868 39.9 12.8 31 11.2
2006-11-21 08:33:17 51°20.882 2°58.881 37.3 12.8 26 11.3
2006-11-21 08:33:21 51°20.894 2°58.893 37.4 12.6 33 11.2
2006-11-21 08:33:27 51°20.912 2°58.91 37.1 12.7 27 11.2
2006-11-21 08:33:32 51°20.927 2°58.923 39.9 12.7 32 11.2
2006-11-21 08:33:36 51°20.94 2°58.932 36.1 12.6 23 11.3
2006-11-21 08:33:41 51°20.956 2°58.943 33.3 12.5 23 11.4
2006-11-21 08:33:47 51°20.976 2°58.952 29.4 12.9 17 11.4
2006-11-21 08:33:52 51°20.994 2°58.957 24.9 12.8 11 11.4
2006-11-21 08:33:56 51°21.007 2°58.961 20.4 12.6 9 11.4
2006-11-21 08:34:01 51°21.025 2°58.962 16.9 12.7 6 11.3
2006-11-21 08:34:07 51°21.046 2°58.964 13.8 12.8 3 11.2
2006-11-21 08:34:11 51°21.061 2°58.965 11.6 13 1 11.3
2006-11-21 08:34:17 51°21.082 2°58.962 8.1 13.1 356 11.4
2006-11-21 08:34:21 51°21.097 2°58.962 6.4 12.9 357 11.4
2006-11-21 08:34:26 51°21.115 2°58.959 6.4 13.1 355 11.7
2006-11-21 08:34:31 51°21.133 2°58.958 5.1 13.2 358 11.6
2006-11-21 08:34:37 51°21.154 2°58.954 4.1 13.2 353 11.4
2006-11-21 08:34:41 51°21.169 2°58.953 4.4 13.1 356 11.6
2006-11-21 08:34:46 51°21.187 2°58.947 2.1 13.1 350 11.4
2006-11-21 08:34:52 51°21.208 2°58.943 2.2 13 353 11.6
2006-11-21 08:34:57 51°21.226 2°58.938 1.2 13.1 350 11.7
2006-11-21 08:35:01 51°21.24 2°58.935 -999 13.2 351 11.8
2006-11-21 08:35:07 51°21.262 2°58.928 358.7 13.2 350 11.8
2006-11-21 08:35:11 51°21.276 2°58.924 358.2 13 349 11.8
2006-11-21 08:35:17 51°21.298 2°58.918 359.2 13.1 349 11.9
2006-11-21 08:35:22 51°21.316 2°58.912 359 13.1 350 12
2006-11-21 08:35:27 51°21.333 2°58.905 357.1 13.3 347 12
2006-11-21 08:35:32 51°21.351 2°58.898 355.4 13.3 347 11.8
2006-11-21 08:35:37 51°21.369 2°58.889 354.2 13.2 343 11.9
2006-11-21 08:35:42 51°21.386 2°58.881 352.5 13.3 343 11.9
2006-11-21 08:35:47 51°21.404 2°58.872 351.2 13.3 342 12
2006-11-21 08:35:51 51°21.418 2°58.865 350.7 13.1 342 11.9
2006-11-21 08:35:57 51°21.439 2°58.854 350.2 13.1 341 12.1
2006-11-21 08:36:01 51°21.453 2°58.846 349.6 13 341 12.1
2006-11-21 08:36:05 51°21.466 2°58.838 349.7 12.7 341 12.2
2006-11-21 08:36:12 51°21.489 2°58.826 348.9 12.2 341 12.3
2006-11-21 08:36:17 51°21.505 2°58.818 348.1 11.9 343 12.2
2006-11-21 08:36:22 51°21.519 2°58.809 348.8 11.7 339 12
2006-11-21 08:36:27 51°21.534 2°58.801 348.6 11 341 12.1
2006-11-21 08:36:32 51°21.548 2°58.791 348.8 11 339 12.3
2006-11-21 08:36:37 51°21.562 2°58.784 348.8 10.7 342 12.4
2006-11-21 08:36:42 51°21.576 2°58.777 349.1 10.6 340 12.4
2006-11-21 08:36:47 51°21.589 2°58.769 349.8 10.6 342 12.7
2006-11-21 08:36:51 51°21.6 2°58.764 349.3 10.3 342 12.5
2006-11-21 08:36:57 51°21.616 2°58.756 349.1 9.9 341 12.2
2006-11-21 08:37:02 51°21.626 2°58.749 349.4 9.7 340 12.3
2006-11-21 08:37:07 51°21.639 2°58.742 347.4 9.4 338 12.4
2006-11-21 08:37:12 51°21.651 2°58.732 346.1 9.6 335 12.4
2006-11-21 08:37:17 51°21.662 2°58.722 342.7 9.4 333 12.5
2006-11-21 08:37:23 51°21.676 2°58.711 341.1 9.3 334 12.6
2006-11-21 08:37:27 51°21.685 2°58.703 340.1 9.4 331 12.8
2006-11-21 08:37:32 51°21.696 2°58.694 339 9.2 331 12.8
2006-11-21 08:37:37 51°21.707 2°58.684 338.3 8.7 331 12.9
2006-11-21 08:37:42 51°21.718 2°58.676 338.5 8.8 333 12.8
2006-11-21 08:37:47 51°21.728 2°58.665 338.5 8.8 329 12.9
2006-11-21 08:37:51 51°21.737 2°58.658 337.1 8.4 331 12.8
2006-11-21 08:37:56 51°21.746 2°58.649 336.2 8.3 331 12.6
2006-11-21 08:38:02 51°21.759 2°58.64 339.6 8.5 333 12.6
2006-11-21 08:38:06 51°21.767 2°58.634 343.3 8.7 339 13
2006-11-21 08:38:13 51°21.784 2°58.628 347.6 8.7 345 13.2
2006-11-21 08:38:17 51°21.793 2°58.626 353.5 8.7 350 13.3
2006-11-21 08:38:22 51°21.806 2°58.622 358 8.7 350 13.4
2006-11-21 08:38:28 51°21.82 2°58.617 358.6 9 348 13.7
2006-11-21 08:38:31 51°21.828 2°58.614 355.7 9.2 345 13.8
2006-11-21 08:38:36 51°21.84 2°58.608 353.4 9.3 344 13.6
2006-11-21 08:38:42 51°21.855 2°58.601 352.5 9.5 343 13.9
2006-11-21 08:38:47 51°21.868 2°58.596 352.2 9.4 346 13.8
2006-11-21 08:38:52 51°21.88 2°58.59 352.7 9.5 346 13.7
2006-11-21 08:38:56 51°21.891 2°58.589 355.9 9.6 352 13.6
2006-11-21 08:39:02 51°21.907 2°58.586 358.7 9.5 355 13.4
2006-11-21 08:39:06 51°21.917 2°58.586 2.9 9.5 358 13.5
2006-11-21 08:39:12 51°21.933 2°58.584 6 9.6 356 13.4
2006-11-21 08:39:17 51°21.945 2°58.583 5.9 9.1 354 13.1
2006-11-21 08:39:22 51°21.958 2°58.577 359.9 8.8 345 13.2
2006-11-21 08:39:27 51°21.969 2°58.568 352.1 8.8 334 13.4
2006-11-21 08:39:32 51°21.979 2°58.558 342.7 8.7 326 13.6
2006-11-21 08:39:37 51°21.987 2°58.543 333.9 8.8 316 13.8
2006-11-21 08:39:42 51°21.994 2°58.529 324.6 8.7 311 13.9
2006-11-21 08:39:46 51°21.999 2°58.516 317.1 8.5 300 13.8
2006-11-21 08:39:52 51°22.004 2°58.495 309.2 8.6 291 13.9
2006-11-21 08:39:57 51°22.006 2°58.476 300.9 8.6 284 14.1
2006-11-21 08:40:01 51°22.007 2°58.461 291.7 8.6 277 14.2
2006-11-21 08:40:06 51°22.006 2°58.443 281.2 8.5 267 14.3
2006-11-21 08:40:12 51°22.002 2°58.421 272.1 8.5 256 14.4
2006-11-21 08:40:17 51°21.997 2°58.402 263 8.3 248 -999
2006-11-21 08:40:22 51°21.991 2°58.387 252.5 8.4 238 14.4
2006-11-21 08:40:26 51°21.985 2°58.376 242.4 8 228 18.1
2006-11-21 08:40:32 51°21.975 2°58.364 231.3 8 220 13.7
2006-11-21 08:40:37 51°21.965 2°58.355 222 8 213 13.8
2006-11-21 08:40:42 51°21.954 2°58.348 212.6 8.2 204 13.9
2006-11-21 08:40:46 51°21.945 2°58.344 203.4 8.5 195 14.1
2006-11-21 08:40:52 51°21.931 2°58.339 195.6 8.3 191 14.2
2006-11-21 08:40:57 51°21.921 2°58.336 191.6 8 190 14.2
2006-11-21 08:41:02 51°21.91 2°58.333 190.8 7.6 190 14.2
2006-11-21 08:41:07 51°21.901 2°58.33 191 7.3 194 14.1
2006-11-21 08:41:12 51°21.891 2°58.326 193.7 7 193 14.1
2006-11-21 08:41:17 51°21.882 2°58.322 197.3 6.7 195 14.1
2006-11-21 08:41:22 51°21.874 2°58.316 201.6 6.6 204 14.1
2006-11-21 08:41:27 51°21.866 2°58.31 203.7 6.3 205 14.1
2006-11-21 08:41:32 51°21.859 2°58.305 207.7 5.9 206 14
2006-11-21 08:41:37 51°21.852 2°58.299 210.2 5.9 209 14.1
2006-11-21 08:41:42 51°21.845 2°58.293 212.8 5.7 209 14
2006-11-21 08:41:46 51°21.84 2°58.288 215.9 5.4 212 14
2006-11-21 08:41:52 51°21.833 2°58.28 218.9 5.1 213 14
2006-11-21 08:41:57 51°21.827 2°58.273 221.9 4.9 215 14
2006-11-21 08:42:01 51°21.823 2°58.268 224 4.7 217 13.9
2006-11-21 08:42:06 51°21.818 2°58.262 224.7 4.6 215 13.7
2006-11-21 08:42:12 51°21.812 2°58.257 224.9 4.5 213 13.5
2006-11-21 08:42:17 51°21.807 2°58.251 224.7 4.3 213 13.4
2006-11-21 08:42:22 51°21.803 2°58.246 225.4 4 214 13.4
2006-11-21 08:42:27 51°21.799 2°58.242 226.2 3.6 216 13.3
2006-11-21 08:42:33 51°21.794 2°58.237 227.3 3.4 215 13.5
2006-11-21 08:42:37 51°21.792 2°58.233 227.6 3.2 216 13.7
2006-11-21 08:42:42 51°21.788 2°58.23 227.7 3 211 13.9
2006-11-21 08:42:47 51°21.785 2°58.227 227.7 2.7 210 14.3
2006-11-21 08:42:52 51°21.782 2°58.224 227.6 2.3 210 14
2006-11-21 08:42:57 51°21.78 2°58.222 227.6 2.1 210 14
2006-11-21 08:43:02 51°21.778 2°58.221 226.6 1.7 202 14
2006-11-21 08:43:07 51°21.776 2°58.221 225.5 1.1 188 13.9
2006-11-21 08:43:12 51°21.775 2°58.22 224.2 0.8 180 13.8
2006-11-21 08:43:17 51°21.774 2°58.221 223 0.6 172 13.8
2006-11-21 08:43:22 51°21.774 2°58.222 221.1 0.4 158 13.7
2006-11-21 08:43:27 51°21.773 2°58.223 219.2 0.5 142 13.6
2006-11-21 08:43:33 51°21.772 2°58.223 217 0.4 146 13.7
2006-11-21 08:43:37 51°21.772 2°58.224 214.8 0.5 136 13.9
2006-11-21 08:43:41 51°21.771 2°58.225 212 0.6 132 4.5
2006-11-21 08:43:47 51°21.771 2°58.225 209.3 0.5 137 349.9
2006-11-21 08:43:53 51°21.77 2°58.227 205.8 0.6 132 4.7
2006-11-21 08:43:57 51°21.77 2°58.227 202.8 0.4 156 13.8
2006-11-21 08:44:02 51°21.769 2°58.227 200.2 0.4 152 13.9
2006-11-21 08:44:08 51°21.768 2°58.227 197.7 0.6 147 4.6
2006-11-21 08:44:12 51°21.768 2°58.228 195.6 0.6 163 13.9
2006-11-21 08:44:17 51°21.767 2°58.228 193.7 0.5 190 14
2006-11-21 08:44:22 51°21.766 2°58.228 192.7 0.5 177 13.9
2006-11-21 08:44:27 51°21.766 2°58.228 191.9 0.5 178 13.9
2006-11-21 08:44:32 51°21.765 2°58.228 190.3 0.5 168 14
2006-11-21 08:44:37 51°21.764 2°58.229 188.8 0.5 159 14
2006-11-21 08:44:41 51°21.764 2°58.229 187.4 0.6 151 13.9
2006-11-21 08:44:47 51°21.763 2°58.229 185.8 0.5 183 13.7
2006-11-21 08:44:51 51°21.762 2°58.229 183.8 0.5 160 13.6
2006-11-21 08:44:56 51°21.762 2°58.229 181.7 0.4 177 13.7